sensor_id;sensor_type;location;lat;lon;timestamp;P1;durP1;ratioP1;P2;durP2;ratioP2
29570;SDS011;16814;52.118;11.436;2023-11-21T00:02:27;23.08;;;6.65;;
29570;SDS011;16814;52.118;11.436;2023-11-21T00:04:54;20.90;;;6.32;;
29570;SDS011;16814;52.118;11.436;2023-11-21T00:07:20;21.00;;;6.40;;
29570;SDS011;16814;52.118;11.436;2023-11-21T00:09:48;21.57;;;6.73;;
29570;SDS011;16814;52.118;11.436;2023-11-21T00:12:16;25.73;;;6.82;;
29570;SDS011;16814;52.118;11.436;2023-11-21T00:14:45;21.63;;;7.50;;
29570;SDS011;16814;52.118;11.436;2023-11-21T00:17:13;23.67;;;7.25;;
29570;SDS011;16814;52.118;11.436;2023-11-21T00:19:38;23.27;;;7.40;;
29570;SDS011;16814;52.118;11.436;2023-11-21T00:22:05;24.77;;;7.45;;
29570;SDS011;16814;52.118;11.436;2023-11-21T00:24:32;21.65;;;7.00;;
29570;SDS011;16814;52.118;11.436;2023-11-21T00:27:00;26.45;;;7.32;;
29570;SDS011;16814;52.118;11.436;2023-11-21T00:29:26;21.70;;;7.25;;
29570;SDS011;16814;52.118;11.436;2023-11-21T00:31:54;17.75;;;6.93;;
29570;SDS011;16814;52.118;11.436;2023-11-21T00:34:19;21.10;;;7.35;;
29570;SDS011;16814;52.118;11.436;2023-11-21T00:36:46;17.17;;;7.00;;
29570;SDS011;16814;52.118;11.436;2023-11-21T00:39:12;18.07;;;7.27;;
29570;SDS011;16814;52.118;11.436;2023-11-21T00:41:38;18.77;;;7.00;;
29570;SDS011;16814;52.118;11.436;2023-11-21T00:44:03;22.20;;;7.27;;
29570;SDS011;16814;52.118;11.436;2023-11-21T00:46:32;24.58;;;7.88;;
29570;SDS011;16814;52.118;11.436;2023-11-21T00:48:58;19.48;;;7.50;;
29570;SDS011;16814;52.118;11.436;2023-11-21T00:51:24;21.20;;;7.20;;
29570;SDS011;16814;52.118;11.436;2023-11-21T00:53:51;23.88;;;7.05;;
29570;SDS011;16814;52.118;11.436;2023-11-21T00:56:18;25.60;;;7.63;;
29570;SDS011;16814;52.118;11.436;2023-11-21T00:58:46;22.23;;;7.57;;
29570;SDS011;16814;52.118;11.436;2023-11-21T01:01:16;18.27;;;7.78;;
29570;SDS011;16814;52.118;11.436;2023-11-21T01:03:48;16.58;;;7.35;;
29570;SDS011;16814;52.118;11.436;2023-11-21T01:06:14;21.35;;;8.18;;
29570;SDS011;16814;52.118;11.436;2023-11-21T01:08:40;19.92;;;8.23;;
29570;SDS011;16814;52.118;11.436;2023-11-21T01:11:10;25.25;;;8.18;;
29570;SDS011;16814;52.118;11.436;2023-11-21T01:13:39;24.48;;;8.75;;
29570;SDS011;16814;52.118;11.436;2023-11-21T01:16:07;26.25;;;8.73;;
29570;SDS011;16814;52.118;11.436;2023-11-21T01:18:33;24.85;;;8.25;;
29570;SDS011;16814;52.118;11.436;2023-11-21T01:21:02;21.65;;;8.20;;
29570;SDS011;16814;52.118;11.436;2023-11-21T01:23:28;27.13;;;9.20;;
29570;SDS011;16814;52.118;11.436;2023-11-21T01:25:56;21.60;;;8.50;;
29570;SDS011;16814;52.118;11.436;2023-11-21T01:28:23;26.48;;;8.77;;
29570;SDS011;16814;52.118;11.436;2023-11-21T01:30:49;22.25;;;8.77;;
29570;SDS011;16814;52.118;11.436;2023-11-21T01:33:22;21.10;;;8.25;;
29570;SDS011;16814;52.118;11.436;2023-11-21T01:35:56;21.08;;;9.07;;
29570;SDS011;16814;52.118;11.436;2023-11-21T01:38:26;23.05;;;8.48;;
29570;SDS011;16814;52.118;11.436;2023-11-21T01:40:52;28.75;;;8.85;;
29570;SDS011;16814;52.118;11.436;2023-11-21T01:43:18;24.95;;;9.27;;
29570;SDS011;16814;52.118;11.436;2023-11-21T01:45:46;27.63;;;9.60;;
29570;SDS011;16814;52.118;11.436;2023-11-21T01:48:13;29.95;;;9.63;;
29570;SDS011;16814;52.118;11.436;2023-11-21T01:50:41;26.92;;;9.60;;
29570;SDS011;16814;52.118;11.436;2023-11-21T01:53:10;27.27;;;9.63;;
29570;SDS011;16814;52.118;11.436;2023-11-21T01:55:40;25.33;;;9.32;;
29570;SDS011;16814;52.118;11.436;2023-11-21T01:58:10;25.75;;;9.50;;
29570;SDS011;16814;52.118;11.436;2023-11-21T02:00:40;31.80;;;10.40;;
29570;SDS011;16814;52.118;11.436;2023-11-21T02:03:07;28.65;;;9.98;;
29570;SDS011;16814;52.118;11.436;2023-11-21T02:05:35;27.95;;;9.65;;
29570;SDS011;16814;52.118;11.436;2023-11-21T02:08:01;31.02;;;10.48;;
29570;SDS011;16814;52.118;11.436;2023-11-21T02:10:30;28.80;;;10.10;;
29570;SDS011;16814;52.118;11.436;2023-11-21T02:12:57;26.92;;;10.25;;
29570;SDS011;16814;52.118;11.436;2023-11-21T02:15:25;23.48;;;10.15;;
29570;SDS011;16814;52.118;11.436;2023-11-21T02:17:55;30.63;;;11.07;;
29570;SDS011;16814;52.118;11.436;2023-11-21T02:20:25;31.08;;;10.30;;
29570;SDS011;16814;52.118;11.436;2023-11-21T02:22:56;29.90;;;11.20;;
29570;SDS011;16814;52.118;11.436;2023-11-21T02:25:32;29.83;;;11.02;;
29570;SDS011;16814;52.118;11.436;2023-11-21T02:28:02;31.00;;;11.40;;
29570;SDS011;16814;52.118;11.436;2023-11-21T02:30:29;36.75;;;11.35;;
29570;SDS011;16814;52.118;11.436;2023-11-21T02:33:02;34.75;;;11.65;;
29570;SDS011;16814;52.118;11.436;2023-11-21T02:35:28;31.05;;;12.00;;
29570;SDS011;16814;52.118;11.436;2023-11-21T02:37:54;25.63;;;11.67;;
29570;SDS011;16814;52.118;11.436;2023-11-21T02:40:20;31.55;;;11.43;;
29570;SDS011;16814;52.118;11.436;2023-11-21T02:42:47;31.27;;;11.57;;
29570;SDS011;16814;52.118;11.436;2023-11-21T02:45:13;33.58;;;11.68;;
29570;SDS011;16814;52.118;11.436;2023-11-21T02:47:44;33.07;;;11.70;;
29570;SDS011;16814;52.118;11.436;2023-11-21T02:50:10;29.20;;;12.02;;
29570;SDS011;16814;52.118;11.436;2023-11-21T02:52:38;30.85;;;11.65;;
29570;SDS011;16814;52.118;11.436;2023-11-21T02:55:05;33.60;;;12.50;;
29570;SDS011;16814;52.118;11.436;2023-11-21T02:57:33;31.93;;;12.70;;
29570;SDS011;16814;52.118;11.436;2023-11-21T02:59:59;32.85;;;13.10;;
29570;SDS011;16814;52.118;11.436;2023-11-21T03:02:25;35.80;;;12.57;;
29570;SDS011;16814;52.118;11.436;2023-11-21T03:04:52;32.90;;;13.18;;
29570;SDS011;16814;52.118;11.436;2023-11-21T03:07:19;36.13;;;14.05;;
29570;SDS011;16814;52.118;11.436;2023-11-21T03:09:45;31.20;;;13.17;;
29570;SDS011;16814;52.118;11.436;2023-11-21T03:12:12;32.10;;;13.73;;
29570;SDS011;16814;52.118;11.436;2023-11-21T03:14:39;35.03;;;14.43;;
29570;SDS011;16814;52.118;11.436;2023-11-21T03:17:06;37.60;;;14.52;;
29570;SDS011;16814;52.118;11.436;2023-11-21T03:19:35;37.47;;;14.55;;
29570;SDS011;16814;52.118;11.436;2023-11-21T03:22:00;32.85;;;13.57;;
29570;SDS011;16814;52.118;11.436;2023-11-21T03:24:26;38.37;;;14.67;;
29570;SDS011;16814;52.118;11.436;2023-11-21T03:26:54;31.92;;;14.05;;
29570;SDS011;16814;52.118;11.436;2023-11-21T03:29:20;30.70;;;14.00;;
29570;SDS011;16814;52.118;11.436;2023-11-21T03:31:48;35.85;;;13.77;;
29570;SDS011;16814;52.118;11.436;2023-11-21T03:34:15;39.40;;;15.20;;
29570;SDS011;16814;52.118;11.436;2023-11-21T03:36:53;47.22;;;16.63;;
29570;SDS011;16814;52.118;11.436;2023-11-21T03:39:19;46.33;;;16.20;;
29570;SDS011;16814;52.118;11.436;2023-11-21T03:41:46;43.00;;;16.95;;
29570;SDS011;16814;52.118;11.436;2023-11-21T03:44:12;41.33;;;16.70;;
29570;SDS011;16814;52.118;11.436;2023-11-21T03:46:40;45.47;;;16.80;;
29570;SDS011;16814;52.118;11.436;2023-11-21T03:49:07;43.90;;;17.10;;
29570;SDS011;16814;52.118;11.436;2023-11-21T03:51:34;45.03;;;18.10;;
29570;SDS011;16814;52.118;11.436;2023-11-21T03:54:00;45.47;;;17.80;;
29570;SDS011;16814;52.118;11.436;2023-11-21T03:56:26;51.40;;;18.55;;
29570;SDS011;16814;52.118;11.436;2023-11-21T03:58:53;43.47;;;18.10;;
29570;SDS011;16814;52.118;11.436;2023-11-21T04:01:19;46.25;;;17.33;;
29570;SDS011;16814;52.118;11.436;2023-11-21T04:03:47;45.83;;;18.00;;
29570;SDS011;16814;52.118;11.436;2023-11-21T04:06:15;48.67;;;17.75;;
29570;SDS011;16814;52.118;11.436;2023-11-21T04:08:49;42.50;;;17.10;;
29570;SDS011;16814;52.118;11.436;2023-11-21T04:11:18;41.85;;;17.45;;
29570;SDS011;16814;52.118;11.436;2023-11-21T04:13:47;46.38;;;17.25;;
29570;SDS011;16814;52.118;11.436;2023-11-21T04:16:12;48.35;;;18.02;;
29570;SDS011;16814;52.118;11.436;2023-11-21T04:18:39;48.87;;;18.43;;
29570;SDS011;16814;52.118;11.436;2023-11-21T04:21:07;37.08;;;17.35;;
29570;SDS011;16814;52.118;11.436;2023-11-21T04:23:35;53.03;;;19.38;;
29570;SDS011;16814;52.118;11.436;2023-11-21T04:26:02;46.33;;;18.75;;
29570;SDS011;16814;52.118;11.436;2023-11-21T04:28:29;51.17;;;18.55;;
29570;SDS011;16814;52.118;11.436;2023-11-21T04:30:56;50.00;;;19.80;;
29570;SDS011;16814;52.118;11.436;2023-11-21T04:33:23;44.88;;;18.75;;
29570;SDS011;16814;52.118;11.436;2023-11-21T04:35:51;51.55;;;19.75;;
29570;SDS011;16814;52.118;11.436;2023-11-21T04:38:16;46.80;;;19.33;;
29570;SDS011;16814;52.118;11.436;2023-11-21T04:40:45;46.08;;;19.63;;
29570;SDS011;16814;52.118;11.436;2023-11-21T04:43:12;51.72;;;18.95;;
29570;SDS011;16814;52.118;11.436;2023-11-21T04:45:39;53.08;;;17.75;;
29570;SDS011;16814;52.118;11.436;2023-11-21T04:48:07;43.67;;;18.45;;
29570;SDS011;16814;52.118;11.436;2023-11-21T04:50:35;47.67;;;19.88;;
29570;SDS011;16814;52.118;11.436;2023-11-21T04:53:02;58.75;;;19.95;;
29570;SDS011;16814;52.118;11.436;2023-11-21T04:55:30;53.83;;;20.30;;
29570;SDS011;16814;52.118;11.436;2023-11-21T04:57:59;48.38;;;20.48;;
29570;SDS011;16814;52.118;11.436;2023-11-21T05:00:26;54.35;;;21.02;;
29570;SDS011;16814;52.118;11.436;2023-11-21T05:02:52;50.13;;;20.10;;
29570;SDS011;16814;52.118;11.436;2023-11-21T05:05:18;48.97;;;19.97;;
29570;SDS011;16814;52.118;11.436;2023-11-21T05:07:46;57.28;;;20.38;;
29570;SDS011;16814;52.118;11.436;2023-11-21T05:10:15;46.08;;;19.35;;
29570;SDS011;16814;52.118;11.436;2023-11-21T05:12:46;47.75;;;19.48;;
29570;SDS011;16814;52.118;11.436;2023-11-21T05:15:14;53.92;;;20.38;;
29570;SDS011;16814;52.118;11.436;2023-11-21T05:17:41;54.85;;;20.98;;
29570;SDS011;16814;52.118;11.436;2023-11-21T05:20:12;59.80;;;20.97;;
29570;SDS011;16814;52.118;11.436;2023-11-21T05:22:44;55.92;;;22.23;;
29570;SDS011;16814;52.118;11.436;2023-11-21T05:25:09;57.53;;;21.17;;
29570;SDS011;16814;52.118;11.436;2023-11-21T05:27:37;56.30;;;21.85;;
29570;SDS011;16814;52.118;11.436;2023-11-21T05:30:03;54.85;;;21.45;;
29570;SDS011;16814;52.118;11.436;2023-11-21T05:32:35;33.33;;;14.07;;
29570;SDS011;16814;52.118;11.436;2023-11-21T05:35:00;18.98;;;9.48;;
29570;SDS011;16814;52.118;11.436;2023-11-21T05:37:30;11.98;;;6.72;;
29570;SDS011;16814;52.118;11.436;2023-11-21T05:40:06;15.88;;;6.28;;
29570;SDS011;16814;52.118;11.436;2023-11-21T05:42:35;10.20;;;6.47;;
29570;SDS011;16814;52.118;11.436;2023-11-21T05:45:08;11.15;;;6.57;;
29570;SDS011;16814;52.118;11.436;2023-11-21T05:47:38;14.13;;;7.53;;
29570;SDS011;16814;52.118;11.436;2023-11-21T05:50:07;13.00;;;7.57;;
29570;SDS011;16814;52.118;11.436;2023-11-21T05:52:41;11.77;;;7.00;;
29570;SDS011;16814;52.118;11.436;2023-11-21T05:55:10;11.77;;;7.15;;
29570;SDS011;16814;52.118;11.436;2023-11-21T05:57:36;10.02;;;6.35;;
29570;SDS011;16814;52.118;11.436;2023-11-21T06:00:04;12.63;;;6.85;;
29570;SDS011;16814;52.118;11.436;2023-11-21T06:02:42;10.32;;;6.50;;
29570;SDS011;16814;52.118;11.436;2023-11-21T06:05:08;11.38;;;6.38;;
29570;SDS011;16814;52.118;11.436;2023-11-21T06:07:36;12.75;;;6.68;;
29570;SDS011;16814;52.118;11.436;2023-11-21T06:10:07;10.65;;;6.50;;
29570;SDS011;16814;52.118;11.436;2023-11-21T06:12:36;15.82;;;9.30;;
29570;SDS011;16814;52.118;11.436;2023-11-21T06:15:03;15.43;;;8.48;;
29570;SDS011;16814;52.118;11.436;2023-11-21T06:17:43;25.13;;;16.52;;
29570;SDS011;16814;52.118;11.436;2023-11-21T06:20:15;20.15;;;13.18;;
29570;SDS011;16814;52.118;11.436;2023-11-21T06:22:47;19.60;;;11.25;;
29570;SDS011;16814;52.118;11.436;2023-11-21T06:25:17;15.40;;;9.33;;
29570;SDS011;16814;52.118;11.436;2023-11-21T06:27:44;23.50;;;15.57;;
29570;SDS011;16814;52.118;11.436;2023-11-21T06:30:16;19.77;;;12.68;;
29570;SDS011;16814;52.118;11.436;2023-11-21T06:32:46;18.65;;;11.23;;
29570;SDS011;16814;52.118;11.436;2023-11-21T06:35:13;18.85;;;11.55;;
29570;SDS011;16814;52.118;11.436;2023-11-21T06:37:41;21.48;;;12.10;;
29570;SDS011;16814;52.118;11.436;2023-11-21T06:40:14;23.02;;;11.93;;
29570;SDS011;16814;52.118;11.436;2023-11-21T06:42:45;20.37;;;12.10;;
29570;SDS011;16814;52.118;11.436;2023-11-21T06:45:12;21.55;;;11.27;;
29570;SDS011;16814;52.118;11.436;2023-11-21T06:47:39;20.50;;;12.13;;
29570;SDS011;16814;52.118;11.436;2023-11-21T06:50:06;20.02;;;12.52;;
29570;SDS011;16814;52.118;11.436;2023-11-21T06:52:33;30.00;;;14.82;;
29570;SDS011;16814;52.118;11.436;2023-11-21T06:55:00;29.73;;;17.02;;
29570;SDS011;16814;52.118;11.436;2023-11-21T06:57:29;36.10;;;18.77;;
29570;SDS011;16814;52.118;11.436;2023-11-21T06:59:56;41.03;;;20.27;;
29570;SDS011;16814;52.118;11.436;2023-11-21T07:02:23;42.27;;;22.70;;
29570;SDS011;16814;52.118;11.436;2023-11-21T07:04:52;38.88;;;22.35;;
29570;SDS011;16814;52.118;11.436;2023-11-21T07:07:18;40.43;;;20.90;;
29570;SDS011;16814;52.118;11.436;2023-11-21T07:09:45;35.80;;;19.80;;
29570;SDS011;16814;52.118;11.436;2023-11-21T07:12:12;34.57;;;19.90;;
29570;SDS011;16814;52.118;11.436;2023-11-21T07:14:39;34.88;;;20.05;;
29570;SDS011;16814;52.118;11.436;2023-11-21T07:17:09;34.53;;;19.77;;
29570;SDS011;16814;52.118;11.436;2023-11-21T07:19:37;36.47;;;20.77;;
29570;SDS011;16814;52.118;11.436;2023-11-21T07:22:03;34.80;;;19.65;;
29570;SDS011;16814;52.118;11.436;2023-11-21T07:24:32;34.40;;;19.35;;
29570;SDS011;16814;52.118;11.436;2023-11-21T07:27:00;36.78;;;20.95;;
29570;SDS011;16814;52.118;11.436;2023-11-21T07:29:29;37.28;;;20.52;;
29570;SDS011;16814;52.118;11.436;2023-11-21T07:31:55;37.20;;;20.85;;
29570;SDS011;16814;52.118;11.436;2023-11-21T07:34:21;39.10;;;20.67;;
29570;SDS011;16814;52.118;11.436;2023-11-21T07:36:49;37.42;;;21.48;;
29570;SDS011;16814;52.118;11.436;2023-11-21T07:39:15;33.38;;;20.27;;
29570;SDS011;16814;52.118;11.436;2023-11-21T07:41:42;33.90;;;19.42;;
29570;SDS011;16814;52.118;11.436;2023-11-21T07:44:13;31.67;;;19.10;;
29570;SDS011;16814;52.118;11.436;2023-11-21T07:46:43;33.73;;;19.10;;
29570;SDS011;16814;52.118;11.436;2023-11-21T07:49:12;33.85;;;18.38;;
29570;SDS011;16814;52.118;11.436;2023-11-21T07:51:47;29.17;;;18.08;;
29570;SDS011;16814;52.118;11.436;2023-11-21T07:54:15;32.55;;;19.17;;
29570;SDS011;16814;52.118;11.436;2023-11-21T07:56:42;34.10;;;19.67;;
29570;SDS011;16814;52.118;11.436;2023-11-21T07:59:09;30.08;;;17.90;;
29570;SDS011;16814;52.118;11.436;2023-11-21T08:01:38;31.48;;;17.23;;
29570;SDS011;16814;52.118;11.436;2023-11-21T08:04:06;30.97;;;18.03;;
29570;SDS011;16814;52.118;11.436;2023-11-21T08:06:32;27.85;;;16.35;;
29570;SDS011;16814;52.118;11.436;2023-11-21T08:08:59;30.48;;;16.50;;
29570;SDS011;16814;52.118;11.436;2023-11-21T08:11:25;26.27;;;16.10;;
29570;SDS011;16814;52.118;11.436;2023-11-21T08:13:56;28.97;;;15.87;;
29570;SDS011;16814;52.118;11.436;2023-11-21T08:16:24;29.02;;;17.17;;
29570;SDS011;16814;52.118;11.436;2023-11-21T08:18:53;27.60;;;16.15;;
29570;SDS011;16814;52.118;11.436;2023-11-21T08:21:20;26.03;;;15.70;;
29570;SDS011;16814;52.118;11.436;2023-11-21T08:23:47;25.30;;;16.08;;
29570;SDS011;16814;52.118;11.436;2023-11-21T08:26:19;27.25;;;16.35;;
29570;SDS011;16814;52.118;11.436;2023-11-21T08:28:48;27.75;;;16.42;;
29570;SDS011;16814;52.118;11.436;2023-11-21T08:31:23;28.60;;;16.37;;
29570;SDS011;16814;52.118;11.436;2023-11-21T08:33:52;25.13;;;16.17;;
29570;SDS011;16814;52.118;11.436;2023-11-21T08:36:21;23.60;;;14.73;;
29570;SDS011;16814;52.118;11.436;2023-11-21T08:38:49;22.27;;;14.18;;
29570;SDS011;16814;52.118;11.436;2023-11-21T08:41:19;22.67;;;13.47;;
29570;SDS011;16814;52.118;11.436;2023-11-21T08:43:48;20.55;;;12.38;;
29570;SDS011;16814;52.118;11.436;2023-11-21T08:46:15;18.23;;;11.70;;
29570;SDS011;16814;52.118;11.436;2023-11-21T08:48:43;18.88;;;12.23;;
29570;SDS011;16814;52.118;11.436;2023-11-21T08:51:09;21.77;;;11.68;;
29570;SDS011;16814;52.118;11.436;2023-11-21T08:53:38;18.58;;;11.73;;
29570;SDS011;16814;52.118;11.436;2023-11-21T08:56:03;19.13;;;11.55;;
29570;SDS011;16814;52.118;11.436;2023-11-21T08:58:31;21.33;;;11.55;;
29570;SDS011;16814;52.118;11.436;2023-11-21T09:00:57;19.27;;;11.47;;
29570;SDS011;16814;52.118;11.436;2023-11-21T09:03:25;17.52;;;11.00;;
29570;SDS011;16814;52.118;11.436;2023-11-21T09:05:54;22.40;;;11.80;;
29570;SDS011;16814;52.118;11.436;2023-11-21T09:08:23;19.17;;;11.80;;
29570;SDS011;16814;52.118;11.436;2023-11-21T09:10:48;19.95;;;12.25;;
29570;SDS011;16814;52.118;11.436;2023-11-21T09:13:14;16.40;;;10.68;;
29570;SDS011;16814;52.118;11.436;2023-11-21T09:15:43;23.15;;;13.55;;
29570;SDS011;16814;52.118;11.436;2023-11-21T09:18:18;19.60;;;11.25;;
29570;SDS011;16814;52.118;11.436;2023-11-21T09:20:54;20.50;;;11.90;;
29570;SDS011;16814;52.118;11.436;2023-11-21T09:23:21;18.23;;;12.10;;
29570;SDS011;16814;52.118;11.436;2023-11-21T09:25:46;22.52;;;14.55;;
29570;SDS011;16814;52.118;11.436;2023-11-21T09:28:16;18.15;;;11.75;;
29570;SDS011;16814;52.118;11.436;2023-11-21T09:30:44;18.60;;;11.38;;
29570;SDS011;16814;52.118;11.436;2023-11-21T09:33:10;18.67;;;11.95;;
29570;SDS011;16814;52.118;11.436;2023-11-21T09:35:37;19.85;;;11.70;;
29570;SDS011;16814;52.118;11.436;2023-11-21T09:38:04;20.52;;;14.15;;
29570;SDS011;16814;52.118;11.436;2023-11-21T09:40:38;16.75;;;11.05;;
29570;SDS011;16814;52.118;11.436;2023-11-21T09:43:13;18.95;;;12.05;;
29570;SDS011;16814;52.118;11.436;2023-11-21T09:45:45;19.30;;;11.25;;
29570;SDS011;16814;52.118;11.436;2023-11-21T09:48:13;18.55;;;10.55;;
29570;SDS011;16814;52.118;11.436;2023-11-21T09:50:43;21.87;;;10.60;;
29570;SDS011;16814;52.118;11.436;2023-11-21T09:53:20;17.67;;;10.85;;
29570;SDS011;16814;52.118;11.436;2023-11-21T09:55:50;18.77;;;10.82;;
29570;SDS011;16814;52.118;11.436;2023-11-21T09:58:19;17.92;;;10.93;;
29570;SDS011;16814;52.118;11.436;2023-11-21T10:00:49;19.27;;;10.77;;
29570;SDS011;16814;52.118;11.436;2023-11-21T10:03:19;20.67;;;11.05;;
29570;SDS011;16814;52.118;11.436;2023-11-21T10:05:48;17.83;;;11.37;;
29570;SDS011;16814;52.118;11.436;2023-11-21T10:08:16;16.45;;;11.23;;
29570;SDS011;16814;52.118;11.436;2023-11-21T10:10:43;19.00;;;12.00;;
29570;SDS011;16814;52.118;11.436;2023-11-21T10:13:11;18.20;;;11.55;;
29570;SDS011;16814;52.118;11.436;2023-11-21T10:15:43;16.95;;;10.95;;
29570;SDS011;16814;52.118;11.436;2023-11-21T10:18:16;15.32;;;10.70;;
29570;SDS011;16814;52.118;11.436;2023-11-21T10:20:42;15.23;;;9.77;;
29570;SDS011;16814;52.118;11.436;2023-11-21T10:23:12;16.65;;;10.00;;
29570;SDS011;16814;52.118;11.436;2023-11-21T10:25:40;16.20;;;9.90;;
29570;SDS011;16814;52.118;11.436;2023-11-21T10:28:07;17.70;;;10.10;;
29570;SDS011;16814;52.118;11.436;2023-11-21T10:30:39;16.83;;;10.32;;
29570;SDS011;16814;52.118;11.436;2023-11-21T10:33:07;16.67;;;10.00;;
29570;SDS011;16814;52.118;11.436;2023-11-21T10:35:45;17.15;;;10.48;;
29570;SDS011;16814;52.118;11.436;2023-11-21T10:38:17;16.13;;;10.47;;
29570;SDS011;16814;52.118;11.436;2023-11-21T10:40:44;15.43;;;9.57;;
29570;SDS011;16814;52.118;11.436;2023-11-21T10:43:13;14.68;;;9.27;;
29570;SDS011;16814;52.118;11.436;2023-11-21T10:45:45;15.15;;;9.55;;
29570;SDS011;16814;52.118;11.436;2023-11-21T10:48:13;14.02;;;9.32;;
29570;SDS011;16814;52.118;11.436;2023-11-21T10:50:47;17.15;;;10.27;;
29570;SDS011;16814;52.118;11.436;2023-11-21T10:53:15;16.90;;;10.18;;
29570;SDS011;16814;52.118;11.436;2023-11-21T10:55:42;18.83;;;11.00;;
29570;SDS011;16814;52.118;11.436;2023-11-21T10:58:15;18.17;;;10.60;;
29570;SDS011;16814;52.118;11.436;2023-11-21T11:00:42;17.65;;;11.25;;
29570;SDS011;16814;52.118;11.436;2023-11-21T11:03:11;16.50;;;10.40;;
29570;SDS011;16814;52.118;11.436;2023-11-21T11:05:39;18.77;;;10.60;;
29570;SDS011;16814;52.118;11.436;2023-11-21T11:08:12;16.08;;;10.40;;
29570;SDS011;16814;52.118;11.436;2023-11-21T11:10:46;14.93;;;10.03;;
29570;SDS011;16814;52.118;11.436;2023-11-21T11:13:17;16.77;;;9.73;;
29570;SDS011;16814;52.118;11.436;2023-11-21T11:15:47;16.23;;;9.77;;
29570;SDS011;16814;52.118;11.436;2023-11-21T11:18:13;17.67;;;10.23;;
29570;SDS011;16814;52.118;11.436;2023-11-21T11:20:42;17.20;;;9.97;;
29570;SDS011;16814;52.118;11.436;2023-11-21T11:29:51;15.18;;;10.38;;
29570;SDS011;16814;52.118;11.436;2023-11-21T11:38:51;16.60;;;10.05;;
29570;SDS011;16814;52.118;11.436;2023-11-21T11:41:30;15.57;;;9.52;;
29570;SDS011;16814;52.118;11.436;2023-11-21T11:44:01;14.70;;;9.05;;
29570;SDS011;16814;52.118;11.436;2023-11-21T11:46:40;17.30;;;8.65;;
29570;SDS011;16814;52.118;11.436;2023-11-21T11:49:24;17.67;;;9.25;;
29570;SDS011;16814;52.118;11.436;2023-11-21T11:52:31;14.03;;;8.67;;
29570;SDS011;16814;52.118;11.436;2023-11-21T11:55:12;14.02;;;8.70;;
29570;SDS011;16814;52.118;11.436;2023-11-21T11:57:40;13.80;;;8.73;;
29570;SDS011;16814;52.118;11.436;2023-11-21T12:00:16;14.68;;;9.13;;
29570;SDS011;16814;52.118;11.436;2023-11-21T12:02:52;13.20;;;8.50;;
29570;SDS011;16814;52.118;11.436;2023-11-21T12:05:19;12.20;;;8.30;;
29570;SDS011;16814;52.118;11.436;2023-11-21T12:07:50;13.98;;;8.30;;
29570;SDS011;16814;52.118;11.436;2023-11-21T12:10:26;14.43;;;7.93;;
29570;SDS011;16814;52.118;11.436;2023-11-21T12:12:57;12.82;;;8.10;;
29570;SDS011;16814;52.118;11.436;2023-11-21T12:15:25;18.83;;;8.73;;
29570;SDS011;16814;52.118;11.436;2023-11-21T12:17:59;14.48;;;8.00;;
29570;SDS011;16814;52.118;11.436;2023-11-21T12:20:25;13.52;;;8.45;;
29570;SDS011;16814;52.118;11.436;2023-11-21T12:22:52;17.10;;;7.57;;
29570;SDS011;16814;52.118;11.436;2023-11-21T12:25:28;10.77;;;7.22;;
29570;SDS011;16814;52.118;11.436;2023-11-21T12:27:59;11.70;;;6.90;;
29570;SDS011;16814;52.118;11.436;2023-11-21T12:30:27;11.00;;;6.63;;
29570;SDS011;16814;52.118;11.436;2023-11-21T12:32:56;10.70;;;7.20;;
29570;SDS011;16814;52.118;11.436;2023-11-21T12:35:25;12.38;;;7.38;;
29570;SDS011;16814;52.118;11.436;2023-11-21T12:37:56;12.07;;;7.55;;
29570;SDS011;16814;52.118;11.436;2023-11-21T12:40:22;12.30;;;7.60;;
29570;SDS011;16814;52.118;11.436;2023-11-21T12:42:51;11.80;;;7.15;;
29570;SDS011;16814;52.118;11.436;2023-11-21T12:48:06;12.85;;;6.40;;
29570;SDS011;16814;52.118;11.436;2023-11-21T12:50:34;9.13;;;6.47;;
29570;SDS011;16814;52.118;11.436;2023-11-21T12:53:11;12.75;;;6.30;;
29570;SDS011;16814;52.118;11.436;2023-11-21T12:55:44;8.25;;;5.13;;
29570;SDS011;16814;52.118;11.436;2023-11-21T12:58:17;11.30;;;5.97;;
29570;SDS011;16814;52.118;11.436;2023-11-21T13:00:51;11.93;;;5.80;;
29570;SDS011;16814;52.118;11.436;2023-11-21T13:03:20;8.43;;;4.70;;
29570;SDS011;16814;52.118;11.436;2023-11-21T13:05:51;7.97;;;4.78;;
29570;SDS011;16814;52.118;11.436;2023-11-21T13:08:19;7.03;;;4.43;;
29570;SDS011;16814;52.118;11.436;2023-11-21T13:10:49;7.10;;;4.50;;
29570;SDS011;16814;52.118;11.436;2023-11-21T13:13:23;8.97;;;5.10;;
29570;SDS011;16814;52.118;11.436;2023-11-21T13:15:55;5.88;;;4.45;;
29570;SDS011;16814;52.118;11.436;2023-11-21T13:18:28;7.80;;;4.65;;
29570;SDS011;16814;52.118;11.436;2023-11-21T13:20:54;6.65;;;4.70;;
29570;SDS011;16814;52.118;11.436;2023-11-21T13:23:22;6.43;;;4.70;;
29570;SDS011;16814;52.118;11.436;2023-11-21T13:25:50;7.25;;;4.30;;
29570;SDS011;16814;52.118;11.436;2023-11-21T13:28:18;8.02;;;4.85;;
29570;SDS011;16814;52.118;11.436;2023-11-21T13:30:47;8.48;;;4.68;;
29570;SDS011;16814;52.118;11.436;2023-11-21T13:33:19;7.13;;;4.38;;
29570;SDS011;16814;52.118;11.436;2023-11-21T13:35:53;6.38;;;4.28;;
29570;SDS011;16814;52.118;11.436;2023-11-21T13:38:23;6.88;;;4.50;;
29570;SDS011;16814;52.118;11.436;2023-11-21T13:40:49;7.22;;;4.60;;
29570;SDS011;16814;52.118;11.436;2023-11-21T13:43:25;9.98;;;5.03;;
29570;SDS011;16814;52.118;11.436;2023-11-21T13:45:56;7.63;;;5.07;;
29570;SDS011;16814;52.118;11.436;2023-11-21T13:49:00;7.18;;;4.60;;
29570;SDS011;16814;52.118;11.436;2023-11-21T13:51:31;6.25;;;4.40;;
29570;SDS011;16814;52.118;11.436;2023-11-21T13:54:05;9.10;;;4.80;;
29570;SDS011;16814;52.118;11.436;2023-11-21T13:56:37;7.53;;;4.70;;
29570;SDS011;16814;52.118;11.436;2023-11-21T13:59:07;6.43;;;4.50;;
29570;SDS011;16814;52.118;11.436;2023-11-21T14:01:55;7.35;;;4.68;;
29570;SDS011;16814;52.118;11.436;2023-11-21T14:04:24;7.75;;;4.72;;
29570;SDS011;16814;52.118;11.436;2023-11-21T14:07:29;7.53;;;5.13;;
29570;SDS011;16814;52.118;11.436;2023-11-21T14:10:02;7.03;;;4.93;;
29570;SDS011;16814;52.118;11.436;2023-11-21T14:12:34;6.37;;;5.00;;
29570;SDS011;16814;52.118;11.436;2023-11-21T14:15:04;8.63;;;5.10;;
29570;SDS011;16814;52.118;11.436;2023-11-21T14:17:35;9.35;;;5.03;;
29570;SDS011;16814;52.118;11.436;2023-11-21T14:20:03;8.05;;;5.47;;
29570;SDS011;16814;52.118;11.436;2023-11-21T14:22:32;8.48;;;5.60;;
29570;SDS011;16814;52.118;11.436;2023-11-21T14:24:59;7.67;;;5.60;;
29570;SDS011;16814;52.118;11.436;2023-11-21T14:27:31;9.27;;;5.60;;
29570;SDS011;16814;52.118;11.436;2023-11-21T14:29:58;9.27;;;5.47;;
29570;SDS011;16814;52.118;11.436;2023-11-21T14:32:25;7.37;;;5.30;;
29570;SDS011;16814;52.118;11.436;2023-11-21T14:34:52;10.95;;;5.85;;
29570;SDS011;16814;52.118;11.436;2023-11-21T14:37:19;9.63;;;6.00;;
29570;SDS011;16814;52.118;11.436;2023-11-21T14:39:45;9.95;;;5.60;;
29570;SDS011;16814;52.118;11.436;2023-11-21T14:42:15;9.00;;;5.95;;
29570;SDS011;16814;52.118;11.436;2023-11-21T14:44:43;8.93;;;5.85;;